Time;durP1;ratioP1;P1;durP2;ratioP2;P2;SDS_P1;SDS_P2;PMS_P1;PMS_P2;Temp;Humidity;BMP_temperature;BMP_pressure;BME280_temperature;BME280_humidity;BME280_pressure;Samples;Min_cycle;Max_cycle;Signal;HPM_P1;HPM_P2
2023/03/07 00:00:04;;;;;;;34.33;16.92;;;2.90;99.90;;;;;;5031199;28;20046;-86
2023/03/07 00:02:30;;;;;;;33.08;17.48;;;3.00;99.90;;;;;;5030720;28;20133;-86
2023/03/07 00:04:56;;;;;;;34.08;17.33;;;3.00;99.90;;;;;;5013967;28;20129;-86
2023/03/07 00:07:21;;;;;;;26.65;15.20;;;3.30;99.90;;;;;;5030722;28;20060;-86
2023/03/07 00:09:47;;;;;;;30.02;15.85;;;3.40;99.90;;;;;;5013405;28;20049;-86
2023/03/07 00:12:13;;;;;;;29.05;14.82;;;3.00;99.90;;;;;;5013651;28;20141;-87
2023/03/07 00:14:38;;;;;;;24.85;13.90;;;3.10;99.90;;;;;;5030429;28;20056;-87
2023/03/07 00:17:04;;;;;;;26.10;13.13;;;3.40;99.90;;;;;;5014589;28;20038;-86
2023/03/07 00:19:30;;;;;;;24.20;12.00;;;3.10;99.90;;;;;;5014324;28;20042;-87
2023/03/07 00:21:55;;;;;;;22.92;10.90;;;3.30;99.90;;;;;;5030875;28;20095;-86
2023/03/07 00:24:21;;;;;;;17.60;10.05;;;3.20;99.90;;;;;;5013318;28;20525;-86
2023/03/07 00:26:47;;;;;;;22.73;9.20;;;3.00;99.90;;;;;;5013554;28;20037;-87
2023/03/07 00:29:12;;;;;;;23.35;9.15;;;3.40;99.90;;;;;;5014275;28;20523;-86
2023/03/07 00:31:38;;;;;;;16.77;8.13;;;3.60;99.90;;;;;;5030440;28;20115;-86
2023/03/07 00:34:04;;;;;;;19.83;8.35;;;3.40;99.90;;;;;;5012891;28;20053;-86
2023/03/07 00:36:30;;;;;;;14.75;6.35;;;3.10;99.90;;;;;;5013774;28;20127;-86
2023/03/07 00:38:56;;;;;;;19.48;6.13;;;2.80;99.90;;;;;;5013122;28;20136;-86
2023/03/07 00:41:25;;;;;;;17.73;5.05;;;2.80;99.90;;;;;;5013983;28;20475;-87
2023/03/07 00:43:52;;;;;;;14.85;5.25;;;3.50;99.90;;;;;;5013447;28;20445;-87
2023/03/07 00:46:20;;;;;;;15.30;4.57;;;3.10;99.90;;;;;;5013491;28;20071;-86
2023/03/07 00:48:46;;;;;;;16.02;5.05;;;2.70;99.90;;;;;;5013942;28;20503;-87
2023/03/07 00:51:14;;;;;;;13.95;4.95;;;2.70;99.90;;;;;;5012613;28;20042;-86
2023/03/07 00:53:40;;;;;;;14.88;5.47;;;2.70;99.90;;;;;;5012650;28;20576;-86
2023/03/07 00:56:12;;;;;;;19.10;4.85;;;2.70;99.90;;;;;;5013264;28;20081;-87
2023/03/07 00:58:38;;;;;;;17.50;4.05;;;2.80;99.90;;;;;;5013863;28;20045;-87
2023/03/07 01:01:05;;;;;;;18.85;4.47;;;3.40;99.90;;;;;;5012534;28;20053;-87
2023/03/07 01:03:31;;;;;;;20.05;4.65;;;3.60;99.90;;;;;;5013491;28;20041;-86
2023/03/07 01:06:00;;;;;;;13.40;4.93;;;2.90;99.90;;;;;;5020987;28;20063;-86
2023/03/07 01:08:26;;;;;;;11.23;3.90;;;3.10;99.90;;;;;;5048930;28;20087;-86
2023/03/07 01:10:56;;;;;;;13.43;3.80;;;3.70;99.90;;;;;;5032310;28;20111;-86
2023/03/07 01:13:22;;;;;;;17.77;4.53;;;3.40;99.90;;;;;;5032668;28;20114;-86
2023/03/07 01:15:48;;;;;;;15.85;3.60;;;3.10;99.90;;;;;;5032356;28;20040;-86
2023/03/07 01:18:13;;;;;;;14.48;3.35;;;3.20;99.90;;;;;;5032511;28;20051;-86
2023/03/07 01:20:40;;;;;;;11.65;3.45;;;3.70;99.90;;;;;;5032836;28;20055;-86
2023/03/07 01:23:06;;;;;;;17.38;2.70;;;3.90;99.90;;;;;;5031556;28;20130;-86
2023/03/07 01:25:37;;;;;;;19.88;2.63;;;3.90;99.90;;;;;;5031276;28;20543;-86
2023/03/07 01:28:03;;;;;;;16.05;2.58;;;3.30;99.90;;;;;;5048525;28;20119;-86
2023/03/07 01:30:29;;;;;;;11.85;2.25;;;3.30;99.90;;;;;;5032315;28;20205;-86
2023/03/07 01:32:56;;;;;;;19.30;2.50;;;3.80;99.90;;;;;;5031849;28;20048;-86
2023/03/07 01:35:22;;;;;;;11.70;2.22;;;3.30;99.90;;;;;;5048821;28;20045;-84
2023/03/07 01:37:49;;;;;;;17.67;2.05;;;3.70;99.90;;;;;;5032084;28;20037;-86
2023/03/07 01:40:15;;;;;;;17.73;2.70;;;3.30;99.90;;;;;;5030662;28;20052;-86
2023/03/07 01:42:41;;;;;;;15.38;1.50;;;3.20;99.90;;;;;;5032163;28;20419;-86
2023/03/07 01:45:32;;;;;;;13.65;2.17;;;3.90;99.90;;;;;;5032011;28;20060;-86
2023/03/07 01:47:58;;;;;;;15.52;2.83;;;3.20;99.90;;;;;;5032659;28;20068;-85
2023/03/07 01:50:24;;;;;;;15.25;2.08;;;3.80;99.90;;;;;;5031425;28;20489;-86
2023/03/07 01:52:56;;;;;;;17.75;2.88;;;3.10;99.90;;;;;;5031774;28;20072;-86
2023/03/07 01:55:28;;;;;;;16.05;1.73;;;3.10;99.90;;;;;;5031193;28;20048;-85
2023/03/07 01:57:55;;;;;;;13.35;2.15;;;3.00;99.90;;;;;;5031621;28;20049;-86
2023/03/07 02:00:27;;;;;;;14.27;2.50;;;3.20;99.90;;;;;;5031865;28;20045;-86
2023/03/07 02:03:24;;;;;;;14.80;2.20;;;2.90;99.90;;;;;;5032426;28;20044;-86
2023/03/07 02:05:57;;;;;;;17.67;1.95;;;3.50;99.90;;;;;;5031229;28;20501;-86
2023/03/07 02:08:26;;;;;;;18.75;2.30;;;3.20;99.90;;;;;;5036744;28;20500;-87
2023/03/07 02:10:53;;;;;;;18.17;2.28;;;2.80;99.90;;;;;;5030581;28;20493;-86
2023/03/07 02:13:18;;;;;;;16.08;1.88;;;3.20;99.90;;;;;;5032135;28;20059;-85
2023/03/07 02:15:44;;;;;;;17.40;2.72;;;2.60;99.90;;;;;;5032157;28;20041;-87
2023/03/07 02:18:14;;;;;;;21.02;2.17;;;3.10;99.90;;;;;;5031956;28;20052;-86
2023/03/07 02:21:15;;;;;;;12.80;1.75;;;2.50;99.90;;;;;;5030991;28;20139;-86
2023/03/07 02:23:46;;;;;;;18.20;2.15;;;2.50;99.90;;;;;;5031799;28;20382;-86
2023/03/07 02:26:21;;;;;;;12.55;1.73;;;2.40;99.90;;;;;;5048268;28;20047;-87
2023/03/07 02:28:47;;;;;;;10.40;2.00;;;2.50;99.90;;;;;;5031516;28;20052;-86
2023/03/07 02:31:13;;;;;;;21.25;2.20;;;2.90;99.90;;;;;;5031988;28;20057;-86
2023/03/07 02:33:39;;;;;;;13.88;2.10;;;3.50;99.90;;;;;;5031124;28;20040;-87
2023/03/07 02:36:08;;;;;;;25.88;2.42;;;2.70;99.90;;;;;;5047959;28;20128;-87
2023/03/07 02:38:38;;;;;;;16.90;1.88;;;2.60;99.90;;;;;;5031276;28;20040;-86
2023/03/07 02:41:05;;;;;;;13.02;1.73;;;3.10;99.90;;;;;;5047529;28;20049;-86
2023/03/07 02:43:31;;;;;;;14.20;1.73;;;3.20;99.90;;;;;;5048239;28;20092;-87
2023/03/07 02:45:57;;;;;;;14.93;2.40;;;3.00;99.90;;;;;;5031108;28;20084;-87
2023/03/07 02:48:23;;;;;;;16.70;2.00;;;3.30;99.90;;;;;;5031902;28;20059;-86
2023/03/07 02:50:48;;;;;;;10.07;1.60;;;2.50;99.90;;;;;;5047709;28;20052;-86
2023/03/07 02:53:14;;;;;;;22.95;1.77;;;2.40;99.90;;;;;;5063584;28;20045;-86
2023/03/07 02:55:40;;;;;;;13.75;1.90;;;2.60;99.90;;;;;;5030916;28;20566;-87
2023/03/07 02:58:06;;;;;;;21.60;2.10;;;3.50;99.90;;;;;;5030946;28;20068;-87
2023/03/07 03:00:32;;;;;;;15.73;2.00;;;2.70;99.90;;;;;;5047373;28;20045;-87
2023/03/07 03:02:58;;;;;;;18.25;1.45;;;2.30;99.90;;;;;;5030827;28;20033;-87
2023/03/07 03:05:24;;;;;;;15.38;2.22;;;3.20;99.90;;;;;;5034143;28;20052;-87
2023/03/07 03:07:50;;;;;;;17.52;2.85;;;2.40;99.90;;;;;;5038499;28;20044;-86
2023/03/07 03:10:16;;;;;;;12.38;1.55;;;2.40;99.90;;;;;;5053015;28;20043;-86
2023/03/07 03:12:42;;;;;;;20.25;2.45;;;2.30;99.90;;;;;;5054316;28;20123;-86
2023/03/07 03:15:08;;;;;;;14.63;1.40;;;3.10;99.90;;;;;;5053399;28;20563;-86
2023/03/07 03:17:34;;;;;;;12.98;1.63;;;2.30;99.90;;;;;;5054669;28;20040;-87
2023/03/07 03:20:00;;;;;;;14.95;1.27;;;2.90;99.90;;;;;;5054835;28;20055;-87
2023/03/07 03:22:26;;;;;;;15.50;1.85;;;2.30;99.90;;;;;;5054229;28;20047;-87
2023/03/07 03:24:51;;;;;;;14.38;1.58;;;2.70;99.90;;;;;;5053919;28;20048;-86
2023/03/07 03:27:17;;;;;;;13.73;1.75;;;2.40;99.90;;;;;;5054319;28;20412;-87
2023/03/07 03:29:43;;;;;;;9.23;1.60;;;2.30;99.90;;;;;;5053517;28;20105;-86
2023/03/07 03:32:09;;;;;;;13.80;2.45;;;2.30;99.90;;;;;;5070143;28;20044;-86
2023/03/07 03:34:34;;;;;;;9.55;1.65;;;2.50;99.90;;;;;;5053792;28;20116;-86
2023/03/07 03:37:00;;;;;;;14.43;1.40;;;2.70;99.90;;;;;;5053826;28;20036;-86
2023/03/07 03:39:26;;;;;;;11.85;2.20;;;2.70;99.90;;;;;;5053266;28;20055;-87
2023/03/07 03:41:51;;;;;;;13.70;1.25;;;2.30;99.90;;;;;;5070864;28;20056;-85
2023/03/07 03:44:17;;;;;;;12.80;1.27;;;2.60;99.90;;;;;;5053329;28;20044;-86
2023/03/07 03:46:43;;;;;;;13.43;2.28;;;2.30;99.90;;;;;;5070609;28;20051;-86
2023/03/07 03:49:12;;;;;;;12.10;1.48;;;2.50;99.90;;;;;;5053611;28;20051;-86
2023/03/07 03:51:38;;;;;;;10.20;1.52;;;2.90;99.90;;;;;;5053602;28;20117;-86
2023/03/07 03:54:03;;;;;;;10.98;1.75;;;2.80;99.90;;;;;;5053126;28;20491;-86
2023/03/07 03:56:29;;;;;;;9.65;1.60;;;2.20;99.90;;;;;;5053872;28;20048;-86
2023/03/07 03:58:56;;;;;;;19.00;2.00;;;3.00;99.90;;;;;;5053236;28;20040;-86
2023/03/07 04:01:25;;;;;;;11.70;1.33;;;2.40;99.90;;;;;;5070359;28;20177;-85
2023/03/07 04:03:52;;;;;;;10.77;1.40;;;3.00;99.90;;;;;;5069219;28;20076;-86
2023/03/07 04:06:22;;;;;;;14.18;1.80;;;2.10;99.90;;;;;;5070138;28;20052;-86
2023/03/07 04:08:48;;;;;;;11.02;1.40;;;2.10;99.90;;;;;;5053339;28;20044;-86
2023/03/07 04:11:14;;;;;;;15.60;1.80;;;3.00;99.90;;;;;;5053361;28;20040;-86
2023/03/07 04:13:40;;;;;;;15.98;1.65;;;2.90;99.90;;;;;;5053130;28;20055;-86
2023/03/07 04:16:06;;;;;;;14.35;1.73;;;3.10;99.90;;;;;;5053610;28;20047;-86
2023/03/07 04:18:33;;;;;;;9.85;1.52;;;2.10;99.90;;;;;;5053086;28;20032;-86
2023/03/07 04:20:59;;;;;;;12.05;1.77;;;2.10;99.90;;;;;;5053135;28;20135;-86
2023/03/07 04:23:25;;;;;;;11.70;2.03;;;2.10;99.90;;;;;;5069994;28;20154;-86
2023/03/07 04:25:59;;;;;;;14.90;1.65;;;3.30;99.90;;;;;;5053944;28;20040;-86
2023/03/07 04:28:27;;;;;;;7.05;1.63;;;2.10;99.90;;;;;;5057757;28;20376;-86
2023/03/07 04:30:55;;;;;;;15.40;1.75;;;2.40;99.90;;;;;;5056874;28;20036;-87
2023/03/07 04:33:21;;;;;;;12.93;1.48;;;2.80;99.90;;;;;;5056897;28;20040;-87
2023/03/07 04:35:46;;;;;;;10.23;1.90;;;2.80;99.90;;;;;;5056285;28;20036;-86
2023/03/07 04:38:14;;;;;;;10.27;1.52;;;2.60;99.90;;;;;;5056426;28;20051;-86
2023/03/07 04:40:40;;;;;;;12.88;1.80;;;2.60;99.90;;;;;;5073179;28;20040;-87
2023/03/07 04:43:06;;;;;;;14.20;1.73;;;2.80;99.90;;;;;;5057235;28;20075;-86
2023/03/07 04:45:35;;;;;;;14.45;1.83;;;2.60;99.90;;;;;;5056701;28;20052;-86
2023/03/07 04:48:01;;;;;;;9.20;2.00;;;2.30;99.90;;;;;;5056658;28;20400;-86
2023/03/07 04:50:27;;;;;;;11.02;1.42;;;2.20;99.90;;;;;;5056764;28;20046;-86
2023/03/07 04:52:53;;;;;;;16.50;1.73;;;2.20;99.90;;;;;;5055994;28;20040;-87
2023/03/07 04:55:18;;;;;;;16.88;2.03;;;2.80;99.90;;;;;;5056072;28;20062;-87
2023/03/07 04:57:45;;;;;;;11.75;1.42;;;2.90;99.90;;;;;;5057384;28;20043;-87
2023/03/07 05:00:11;;;;;;;11.77;1.40;;;2.80;99.90;;;;;;5055978;28;20105;-87
2023/03/07 05:02:37;;;;;;;12.68;1.98;;;2.30;99.90;;;;;;5056670;28;20126;-87
2023/03/07 05:05:04;;;;;;;14.38;2.17;;;3.10;99.90;;;;;;5056277;28;20048;-87
2023/03/07 05:07:30;;;;;;;12.27;1.40;;;2.30;99.90;;;;;;5055406;28;20052;-86
2023/03/07 05:09:56;;;;;;;7.68;1.42;;;2.50;99.90;;;;;;5055154;28;20051;-86
2023/03/07 05:12:23;;;;;;;17.45;1.98;;;2.40;99.90;;;;;;5056176;28;20044;-86
2023/03/07 05:14:49;;;;;;;12.48;2.00;;;2.50;99.90;;;;;;5055810;28;20059;-86
2023/03/07 05:17:16;;;;;;;16.83;1.98;;;2.70;99.90;;;;;;5055334;28;20032;-85
2023/03/07 05:19:42;;;;;;;10.90;1.80;;;3.20;99.90;;;;;;5056041;28;20055;-85
2023/03/07 05:22:08;;;;;;;17.63;2.67;;;2.60;99.90;;;;;;5054750;28;20043;-85
2023/03/07 05:24:34;;;;;;;9.48;1.65;;;2.60;99.90;;;;;;5067357;28;20036;-86
2023/03/07 05:27:00;;;;;;;12.13;1.80;;;2.90;99.90;;;;;;5056356;28;20135;-86
2023/03/07 05:29:26;;;;;;;13.82;1.90;;;2.90;99.90;;;;;;5055004;28;20189;-86
2023/03/07 05:31:52;;;;;;;14.25;1.63;;;2.50;99.90;;;;;;5055972;28;20430;-86
2023/03/07 05:34:18;;;;;;;17.83;1.92;;;3.00;99.90;;;;;;5055198;28;20510;-87
2023/03/07 05:36:43;;;;;;;14.57;2.13;;;3.00;99.90;;;;;;5055141;28;20491;-86
2023/03/07 05:39:09;;;;;;;13.23;1.90;;;2.50;99.90;;;;;;5054562;28;20051;-87
2023/03/07 05:41:35;;;;;;;7.38;1.33;;;2.80;99.90;;;;;;5072126;28;20080;-86
2023/03/07 05:44:02;;;;;;;10.77;1.77;;;2.50;99.90;;;;;;5054460;28;20043;-86
2023/03/07 05:46:27;;;;;;;10.20;1.63;;;2.90;99.90;;;;;;5056221;28;20104;-86
2023/03/07 05:48:54;;;;;;;7.82;1.23;;;2.50;99.90;;;;;;5055197;28;20143;-85
2023/03/07 05:51:20;;;;;;;10.63;1.63;;;2.50;99.90;;;;;;5055148;28;20048;-85
2023/03/07 05:53:45;;;;;;;12.40;1.55;;;2.40;99.90;;;;;;5054230;28;20498;-85
2023/03/07 05:56:11;;;;;;;10.63;1.33;;;2.50;99.90;;;;;;5055001;28;20044;-85
2023/03/07 05:58:38;;;;;;;8.93;1.30;;;2.40;99.90;;;;;;5054710;28;20048;-85
2023/03/07 06:01:04;;;;;;;19.60;2.63;;;2.40;99.90;;;;;;5055740;28;20098;-86
2023/03/07 06:03:30;;;;;;;15.18;1.80;;;2.30;99.90;;;;;;5047472;28;20041;-87
2023/03/07 06:05:56;;;;;;;12.07;1.63;;;2.40;99.90;;;;;;5052059;28;20128;-87
2023/03/07 06:08:22;;;;;;;12.95;1.67;;;2.40;99.90;;;;;;5043196;28;20080;-86
2023/03/07 06:10:50;;;;;;;12.95;1.55;;;2.40;99.90;;;;;;5054304;28;20036;-86
2023/03/07 06:13:20;;;;;;;8.23;1.10;;;2.40;99.90;;;;;;5054931;28;20040;-86
2023/03/07 06:15:48;;;;;;;7.93;0.95;;;2.90;99.90;;;;;;5055853;28;20044;-87
2023/03/07 06:18:14;;;;;;;7.53;1.20;;;2.40;99.90;;;;;;5054797;28;20109;-86
2023/03/07 06:20:40;;;;;;;5.72;1.08;;;2.40;99.90;;;;;;5054037;28;20051;-86
2023/03/07 06:23:06;;;;;;;12.88;1.35;;;3.10;99.90;;;;;;5055319;28;20036;-85
2023/03/07 06:25:31;;;;;;;9.90;1.45;;;2.30;99.90;;;;;;5054049;28;20047;-87
2023/03/07 06:27:59;;;;;;;12.20;1.45;;;2.70;99.90;;;;;;5054973;28;20083;-86
2023/03/07 06:30:26;;;;;;;12.15;1.55;;;2.20;99.90;;;;;;5055248;28;20043;-87
2023/03/07 06:32:52;;;;;;;10.18;1.40;;;2.20;99.90;;;;;;5053344;28;20124;-86
2023/03/07 06:35:17;;;;;;;10.05;1.45;;;2.40;99.90;;;;;;5051582;28;20130;-86
2023/03/07 06:37:43;;;;;;;18.15;1.52;;;2.90;99.90;;;;;;5050488;28;20394;-87
2023/03/07 06:40:09;;;;;;;7.80;1.27;;;2.30;99.90;;;;;;5052082;28;20040;-87
2023/03/07 06:42:35;;;;;;;14.65;1.73;;;2.40;99.90;;;;;;5053220;28;20082;-86
2023/03/07 06:45:01;;;;;;;8.88;1.67;;;2.40;99.90;;;;;;5052508;28;20040;-87
2023/03/07 06:47:28;;;;;;;13.15;1.10;;;2.40;99.90;;;;;;5051212;28;20032;-86
2023/03/07 06:49:54;;;;;;;14.77;1.10;;;3.20;99.90;;;;;;5053110;28;20492;-87
2023/03/07 06:52:21;;;;;;;15.07;1.67;;;2.60;99.90;;;;;;5050908;28;20097;-86
2023/03/07 06:54:46;;;;;;;13.52;1.67;;;2.90;99.90;;;;;;5051755;28;20558;-86
2023/03/07 06:57:12;;;;;;;11.07;1.50;;;3.00;99.90;;;;;;5052936;28;20047;-86
2023/03/07 06:59:38;;;;;;;7.57;1.30;;;3.20;99.90;;;;;;5054232;28;20281;-87
2023/03/07 07:02:04;;;;;;;10.70;1.48;;;3.00;99.90;;;;;;5053588;28;20043;-88
2023/03/07 07:04:29;;;;;;;8.18;1.45;;;2.50;99.90;;;;;;5052862;28;20040;-88
2023/03/07 07:06:55;;;;;;;11.57;1.60;;;2.80;99.90;;;;;;5054239;28;20403;-87
2023/03/07 07:09:21;;;;;;;8.27;1.20;;;3.30;99.90;;;;;;5049114;28;20051;-86
2023/03/07 07:11:46;;;;;;;15.75;1.77;;;3.30;99.90;;;;;;5050718;28;20051;-87
2023/03/07 07:14:12;;;;;;;8.77;1.02;;;2.80;99.90;;;;;;5050463;28;20048;-87
2023/03/07 07:16:39;;;;;;;12.85;1.75;;;2.60;99.90;;;;;;5051672;28;20044;-87
2023/03/07 07:19:04;;;;;;;9.00;1.33;;;2.60;99.90;;;;;;5051201;28;20388;-86
2023/03/07 07:21:30;;;;;;;10.50;1.35;;;2.50;99.90;;;;;;5050765;28;20040;-86
2023/03/07 07:23:56;;;;;;;9.10;1.75;;;3.30;99.90;;;;;;5049867;28;20311;-87
2023/03/07 07:26:23;;;;;;;8.63;1.40;;;2.60;99.90;;;;;;5050780;28;20139;-86
2023/03/07 07:28:50;;;;;;;7.90;1.45;;;2.60;99.90;;;;;;5067534;28;20476;-86
2023/03/07 07:31:16;;;;;;;8.18;1.45;;;3.40;99.90;;;;;;5051122;28;20040;-87
2023/03/07 07:33:41;;;;;;;7.15;1.52;;;3.20;99.90;;;;;;5050491;28;20037;-87
2023/03/07 07:36:08;;;;;;;12.30;1.38;;;2.80;99.90;;;;;;5050351;28;20048;-87
2023/03/07 07:38:35;;;;;;;8.68;1.15;;;2.70;99.90;;;;;;5050088;28;20068;-86
2023/03/07 07:41:01;;;;;;;6.95;0.80;;;2.80;99.90;;;;;;5049747;28;20416;-85
2023/03/07 07:43:27;;;;;;;6.55;0.90;;;2.70;99.90;;;;;;5050369;28;20049;-87
2023/03/07 07:45:53;;;;;;;7.22;1.00;;;3.30;99.90;;;;;;5050304;28;20052;-87
2023/03/07 07:48:19;;;;;;;7.03;0.98;;;2.70;99.90;;;;;;5050424;28;20037;-87
2023/03/07 07:50:45;;;;;;;4.53;0.90;;;3.50;99.90;;;;;;5050278;28;20037;-87
2023/03/07 07:53:11;;;;;;;9.95;1.33;;;2.90;99.90;;;;;;5050822;28;20048;-88
2023/03/07 07:55:37;;;;;;;7.80;0.93;;;2.80;99.90;;;;;;5066891;28;20048;-88
2023/03/07 07:58:03;;;;;;;8.23;1.30;;;2.80;99.90;;;;;;5052091;28;20044;-89
2023/03/07 08:00:30;;;;;;;7.72;1.17;;;3.30;99.90;;;;;;5057697;28;20048;-88
2023/03/07 08:02:57;;;;;;;6.30;1.30;;;2.80;99.90;;;;;;5057115;28;20040;-88
2023/03/07 08:05:23;;;;;;;6.88;0.95;;;3.10;99.90;;;;;;5057783;28;20048;-88
2023/03/07 08:07:49;;;;;;;7.30;1.20;;;2.90;99.90;;;;;;5058137;28;20054;-88
2023/03/07 08:10:16;;;;;;;9.10;1.05;;;2.90;99.90;;;;;;5057103;28;20047;-88
2023/03/07 08:12:44;;;;;;;7.97;1.13;;;3.00;99.90;;;;;;5058248;28;20051;-88
2023/03/07 08:15:10;;;;;;;9.65;1.08;;;3.60;99.90;;;;;;5058557;28;20440;-87
2023/03/07 08:17:36;;;;;;;6.43;1.35;;;3.00;99.90;;;;;;5058094;28;20032;-87
2023/03/07 08:20:07;;;;;;;6.40;1.00;;;3.10;99.90;;;;;;5057241;28;20394;-88
2023/03/07 08:22:34;;;;;;;9.27;1.55;;;3.10;99.90;;;;;;5059714;28;20032;-88
2023/03/07 08:24:59;;;;;;;10.18;1.75;;;3.40;99.90;;;;;;5056881;28;20093;-87
2023/03/07 08:27:27;;;;;;;9.13;1.48;;;3.30;99.90;;;;;;5074723;28;20044;-87
2023/03/07 08:29:53;;;;;;;14.25;1.73;;;3.30;99.90;;;;;;5057680;28;20415;-87
2023/03/07 08:32:18;;;;;;;7.30;1.52;;;3.40;99.90;;;;;;5057313;28;20051;-87
2023/03/07 08:34:44;;;;;;;8.50;1.20;;;3.50;99.90;;;;;;5058025;28;20138;-87
2023/03/07 08:37:10;;;;;;;11.18;1.42;;;3.40;99.90;;;;;;5057143;28;20384;-88
2023/03/07 08:39:35;;;;;;;8.50;0.98;;;3.40;99.90;;;;;;5055904;28;20075;-88
2023/03/07 08:42:01;;;;;;;10.25;1.10;;;3.50;99.90;;;;;;5072954;28;20050;-85
2023/03/07 08:44:27;;;;;;;9.80;1.25;;;3.70;99.90;;;;;;5057334;28;20126;-87
2023/03/07 08:46:52;;;;;;;8.75;1.02;;;3.40;99.90;;;;;;5056876;28;20044;-88
2023/03/07 08:49:18;;;;;;;6.80;0.80;;;3.40;99.90;;;;;;5057173;28;20391;-88
2023/03/07 08:51:46;;;;;;;8.27;1.33;;;3.00;99.90;;;;;;5056813;28;20755;-87
2023/03/07 08:54:12;;;;;;;10.55;1.15;;;2.80;99.90;;;;;;5055671;28;20059;-88
2023/03/07 08:56:38;;;;;;;8.48;1.23;;;3.10;99.90;;;;;;5057426;28;20399;-88
2023/03/07 08:59:04;;;;;;;10.30;1.17;;;2.90;99.90;;;;;;5056782;28;20136;-87
2023/03/07 09:01:30;;;;;;;5.13;0.98;;;3.00;99.90;;;;;;5057145;28;20048;-88
2023/03/07 09:03:56;;;;;;;11.27;1.75;;;3.10;99.90;;;;;;5057989;28;20051;-86
2023/03/07 09:06:22;;;;;;;11.25;1.40;;;3.80;99.90;;;;;;5055646;28;20056;-88
2023/03/07 09:08:49;;;;;;;9.52;1.13;;;3.50;99.90;;;;;;5044117;28;20063;-87
2023/03/07 09:11:16;;;;;;;11.85;1.10;;;3.30;99.90;;;;;;5036031;28;20041;-87
2023/03/07 09:13:42;;;;;;;9.90;1.58;;;3.40;99.90;;;;;;5035819;28;20410;-87
2023/03/07 09:16:08;;;;;;;6.40;1.35;;;3.40;99.90;;;;;;5036649;28;20044;-88
2023/03/07 09:18:35;;;;;;;11.95;1.73;;;3.40;99.90;;;;;;5036468;28;20502;-87
2023/03/07 09:21:05;;;;;;;5.28;0.85;;;4.00;99.90;;;;;;5069512;28;20178;-88
2023/03/07 09:23:31;;;;;;;11.73;1.73;;;3.40;99.90;;;;;;5035837;28;20064;-87
2023/03/07 09:25:59;;;;;;;10.35;1.48;;;3.40;99.90;;;;;;5036605;28;20047;-88
2023/03/07 09:28:25;;;;;;;11.90;1.20;;;3.40;99.90;;;;;;5036194;28;20044;-87
2023/03/07 09:30:50;;;;;;;18.15;1.70;;;3.70;99.90;;;;;;5036014;28;20399;-88
2023/03/07 09:33:16;;;;;;;10.65;1.52;;;4.00;99.90;;;;;;5053353;28;20055;-87
2023/03/07 09:35:42;;;;;;;7.60;1.20;;;3.40;99.90;;;;;;5035523;28;20114;-86
2023/03/07 09:38:09;;;;;;;7.75;1.10;;;4.20;99.90;;;;;;5036148;28;20044;-87
2023/03/07 09:40:36;;;;;;;12.80;1.67;;;3.40;99.90;;;;;;5035430;28;20062;-88
2023/03/07 09:43:24;;;;;;;7.68;1.10;;;4.00;99.90;;;;;;5035719;28;20547;-87
2023/03/07 09:46:10;;;;;;;6.55;1.00;;;3.40;99.90;;;;;;5036348;28;20048;-87
2023/03/07 09:48:54;;;;;;;10.57;1.10;;;3.50;99.90;;;;;;5035800;28;20043;-87
2023/03/07 09:51:22;;;;;;;;;;;3.40;99.90;;;;;;5069635;28;20523;-87
2023/03/07 09:53:53;;;;;;;9.23;1.30;;;3.40;99.90;;;;;;5052315;28;19986;-87
2023/03/07 09:56:28;;;;;;;15.77;1.30;;;3.40;99.90;;;;;;5068322;28;20047;-88
2023/03/07 09:59:01;;;;;;;13.10;1.52;;;3.30;99.90;;;;;;5035750;28;20044;-87
2023/03/07 10:01:30;;;;;;;6.13;0.88;;;3.30;99.90;;;;;;5035946;28;20040;-86
2023/03/07 10:04:03;;;;;;;8.15;1.20;;;3.30;99.90;;;;;;5034319;28;20052;-87
2023/03/07 10:06:37;;;;;;;8.15;1.60;;;3.30;99.90;;;;;;5069595;28;20069;-87
2023/03/07 10:09:06;;;;;;;11.23;1.60;;;3.30;99.90;;;;;;5046190;28;20673;-87
2023/03/07 10:11:52;;;;;;;8.75;1.17;;;3.60;99.90;;;;;;5036012;28;20048;-86
2023/03/07 10:14:44;;;;;;;7.50;1.10;;;3.30;99.90;;;;;;5035337;28;20109;-87
2023/03/07 10:17:41;;;;;;;10.77;1.77;;;3.30;99.90;;;;;;5035265;28;20161;-87
2023/03/07 10:20:15;;;;;;;9.18;1.80;;;3.70;99.90;;;;;;5035313;28;20133;-86
2023/03/07 10:22:50;;;;;;;9.63;1.25;;;3.50;99.90;;;;;;5034520;28;20044;-86
2023/03/07 10:25:30;;;;;;;11.68;2.08;;;3.50;99.90;;;;;;5033341;28;20392;-86
2023/03/07 10:28:09;;;;;;;8.18;1.20;;;3.40;99.90;;;;;;5051455;28;20504;-86
2023/03/07 10:30:35;;;;;;;9.40;1.30;;;3.40;99.90;;;;;;5034282;28;20542;-87
2023/03/07 10:33:06;;;;;;;12.85;1.50;;;3.50;99.90;;;;;;5034698;28;20044;-87
2023/03/07 10:35:39;;;;;;;8.63;1.85;;;3.50;99.90;;;;;;5034581;28;20040;-87
2023/03/07 10:38:19;;;;;;;11.55;1.83;;;3.90;99.90;;;;;;5034611;28;20071;-86
2023/03/07 10:40:55;;;;;;;11.40;1.30;;;3.60;99.90;;;;;;5050928;28;20084;-86
2023/03/07 10:43:25;;;;;;;11.57;2.10;;;3.80;99.90;;;;;;5051622;28;20044;-86
2023/03/07 10:46:14;;;;;;;10.40;1.52;;;3.40;99.90;;;;;;5033752;28;20405;-86
2023/03/07 10:48:45;;;;;;;8.77;1.27;;;3.50;99.90;;;;;;5034732;28;20419;-86
2023/03/07 10:51:49;;;;;;;9.60;1.45;;;3.90;99.90;;;;;;5034069;28;20049;-87
2023/03/07 10:54:21;;;;;;;13.00;2.10;;;3.50;99.90;;;;;;5032986;28;20083;-85
2023/03/07 10:57:08;;;;;;;8.25;1.45;;;3.60;99.90;;;;;;5034762;28;20044;-86
2023/03/07 10:59:36;;;;;;;6.57;1.02;;;3.70;99.90;;;;;;5049613;28;20041;-86
2023/03/07 11:02:23;;;;;;;9.05;1.45;;;3.80;99.90;;;;;;5033797;28;20571;-86
2023/03/07 11:04:49;;;;;;;11.68;1.27;;;4.10;99.90;;;;;;5033759;28;20041;-87
2023/03/07 11:07:29;;;;;;;14.85;2.03;;;4.20;99.90;;;;;;5049981;28;20067;-87
2023/03/07 11:09:57;;;;;;;7.20;1.15;;;4.50;99.90;;;;;;5033647;28;20476;-86
2023/03/07 11:12:26;;;;;;;8.98;1.55;;;3.90;99.90;;;;;;5033287;28;20040;-86
2023/03/07 11:14:54;;;;;;;20.70;1.88;;;3.90;99.90;;;;;;5034145;28;20048;-86
2023/03/07 11:17:26;;;;;;;10.52;1.52;;;4.30;99.90;;;;;;5049970;28;20044;-86
2023/03/07 11:19:54;;;;;;;15.90;2.00;;;4.20;99.90;;;;;;5049925;28;20127;-86
2023/03/07 11:22:27;;;;;;;18.42;1.80;;;4.40;99.90;;;;;;5033699;28;20101;-87
2023/03/07 11:24:59;;;;;;;15.07;1.77;;;4.60;99.90;;;;;;5033457;28;20041;-86
2023/03/07 11:27:38;;;;;;;13.20;1.80;;;4.90;99.90;;;;;;5033596;28;20032;-87
2023/03/07 11:30:06;;;;;;;16.15;1.63;;;5.20;99.90;;;;;;5034608;28;20088;-87
2023/03/07 11:32:36;;;;;;;11.80;1.73;;;5.50;99.90;;;;;;5035294;28;20048;-88
2023/03/07 11:35:06;;;;;;;15.20;1.88;;;5.60;99.90;;;;;;5035756;28;20045;-87
2023/03/07 11:38:11;;;;;;;10.15;1.63;;;5.50;99.90;;;;;;5038709;28;20037;-88
2023/03/07 11:40:48;;;;;;;8.13;1.20;;;5.10;99.90;;;;;;5037919;28;20049;-88
2023/03/07 11:43:23;;;;;;;6.45;1.10;;;4.50;99.90;;;;;;5038929;28;20056;-88
2023/03/07 11:45:50;;;;;;;9.80;1.25;;;4.10;99.90;;;;;;5038324;28;20109;-88
2023/03/07 11:48:35;;;;;;;10.60;1.10;;;3.80;99.90;;;;;;5038227;28;20503;-87
2023/03/07 11:51:03;;;;;;;5.85;1.40;;;3.70;99.90;;;;;;5038286;28;20051;-87
2023/03/07 11:53:41;;;;;;;14.88;1.63;;;3.80;99.90;;;;;;5038735;28;20049;-87
2023/03/07 11:56:23;;;;;;;13.68;1.20;;;3.60;99.90;;;;;;5039202;28;20791;-89
2023/03/07 11:58:57;;;;;;;6.78;1.00;;;3.60;99.90;;;;;;5038391;28;20139;-88
2023/03/07 12:01:22;;;;;;;7.80;1.30;;;4.30;99.90;;;;;;5038558;28;20052;-88
2023/03/07 12:04:10;;;;;;;8.20;1.20;;;3.60;99.90;;;;;;5053624;28;20047;-88
2023/03/07 12:06:48;;;;;;;7.43;1.20;;;3.60;99.90;;;;;;5035035;28;20052;-88
2023/03/07 12:09:20;;;;;;;15.20;1.73;;;3.70;99.90;;;;;;5049032;28;20084;-88
2023/03/07 12:11:52;;;;;;;16.13;1.60;;;4.40;99.90;;;;;;5054558;28;20048;-88
2023/03/07 12:14:36;;;;;;;14.07;1.98;;;4.00;99.90;;;;;;5054858;28;20412;-88
2023/03/07 12:17:19;;;;;;;10.93;1.50;;;4.10;99.90;;;;;;5054412;28;20473;-88
2023/03/07 12:19:57;;;;;;;8.05;1.27;;;4.20;99.90;;;;;;5055240;28;20044;-88
2023/03/07 12:22:28;;;;;;;12.38;1.92;;;4.30;99.90;;;;;;5054873;28;20048;-86
2023/03/07 12:24:58;;;;;;;16.05;2.08;;;4.40;99.90;;;;;;5052611;28;20476;-87
2023/03/07 12:27:28;;;;;;;12.90;1.33;;;4.50;99.90;;;;;;5054388;28;20139;-87
2023/03/07 12:30:01;;;;;;;10.10;1.60;;;4.60;99.90;;;;;;5053927;28;20048;-88
2023/03/07 12:32:28;;;;;;;12.07;1.40;;;4.70;99.90;;;;;;5054596;28;20033;-87
2023/03/07 12:34:59;;;;;;;8.52;1.38;;;4.80;99.90;;;;;;5054105;28;20734;-88
2023/03/07 12:37:33;;;;;;;5.47;1.02;;;5.10;99.90;;;;;;5053330;28;20135;-86
2023/03/07 12:40:08;;;;;;;9.52;1.33;;;5.40;99.90;;;;;;5053604;28;20480;-88
2023/03/07 12:42:40;;;;;;;7.70;1.27;;;5.20;99.90;;;;;;5054234;28;20158;-87
2023/03/07 12:45:06;;;;;;;8.52;0.82;;;5.30;99.90;;;;;;5052644;28;20048;-87
2023/03/07 12:47:45;;;;;;;6.10;0.70;;;5.20;99.90;;;;;;5052731;28;20569;-87
2023/03/07 12:50:21;;;;;;;10.55;1.10;;;5.30;99.90;;;;;;5053587;28;20083;-87
2023/03/07 12:53:04;;;;;;;6.07;0.60;;;5.40;99.90;;;;;;5052407;28;20037;-87
2023/03/07 12:55:45;;;;;;;7.32;0.70;;;5.50;99.90;;;;;;5052386;28;20144;-87
2023/03/07 12:58:33;;;;;;;3.58;0.88;;;5.60;99.90;;;;;;5052896;28;20036;-87